sensor_id;sensor_type;location;lat;lon;timestamp;temperature;humidity
24250;DHT22;12379;49.820;8.648;2023-02-28T00:01:01;-0.40;99.90
24250;DHT22;12379;49.820;8.648;2023-02-28T00:03:26;-0.40;99.90
24250;DHT22;12379;49.820;8.648;2023-02-28T00:05:52;-0.40;99.90
24250;DHT22;12379;49.820;8.648;2023-02-28T00:08:17;-0.40;99.90
24250;DHT22;12379;49.820;8.648;2023-02-28T00:10:43;-0.50;99.90
24250;DHT22;12379;49.820;8.648;2023-02-28T00:13:09;-0.40;99.90
24250;DHT22;12379;49.820;8.648;2023-02-28T00:15:34;-0.40;99.90
24250;DHT22;12379;49.820;8.648;2023-02-28T00:18:01;-0.40;99.90
24250;DHT22;12379;49.820;8.648;2023-02-28T00:20:26;-0.30;99.90
24250;DHT22;12379;49.820;8.648;2023-02-28T00:22:53;-0.30;99.90
24250;DHT22;12379;49.820;8.648;2023-02-28T00:25:22;-0.30;99.90
24250;DHT22;12379;49.820;8.648;2023-02-28T00:27:48;-0.40;99.90
24250;DHT22;12379;49.820;8.648;2023-02-28T00:30:17;-0.50;99.90
24250;DHT22;12379;49.820;8.648;2023-02-28T00:32:43;-0.50;99.90
24250;DHT22;12379;49.820;8.648;2023-02-28T00:35:09;-0.60;99.90
24250;DHT22;12379;49.820;8.648;2023-02-28T00:37:35;-0.60;99.90
24250;DHT22;12379;49.820;8.648;2023-02-28T00:40:01;-0.70;99.90
24250;DHT22;12379;49.820;8.648;2023-02-28T00:42:27;-0.70;99.90
24250;DHT22;12379;49.820;8.648;2023-02-28T00:44:53;-0.80;99.90
24250;DHT22;12379;49.820;8.648;2023-02-28T00:47:19;-0.70;99.90
24250;DHT22;12379;49.820;8.648;2023-02-28T00:49:45;-0.80;99.90
24250;DHT22;12379;49.820;8.648;2023-02-28T00:52:10;-0.70;99.90
24250;DHT22;12379;49.820;8.648;2023-02-28T00:54:36;-0.80;99.90
24250;DHT22;12379;49.820;8.648;2023-02-28T00:57:01;-0.80;99.90
24250;DHT22;12379;49.820;8.648;2023-02-28T00:59:27;-0.80;99.90
24250;DHT22;12379;49.820;8.648;2023-02-28T01:01:52;-0.80;99.90
24250;DHT22;12379;49.820;8.648;2023-02-28T01:04:18;-0.90;99.90
24250;DHT22;12379;49.820;8.648;2023-02-28T01:06:43;-0.90;99.90
24250;DHT22;12379;49.820;8.648;2023-02-28T01:09:09;-1.00;99.90
24250;DHT22;12379;49.820;8.648;2023-02-28T01:11:35;-0.90;99.90
24250;DHT22;12379;49.820;8.648;2023-02-28T01:14:01;-1.00;99.90
24250;DHT22;12379;49.820;8.648;2023-02-28T01:16:27;-1.00;99.90
24250;DHT22;12379;49.820;8.648;2023-02-28T01:18:53;-1.00;99.90
24250;DHT22;12379;49.820;8.648;2023-02-28T01:21:21;-1.00;99.90
24250;DHT22;12379;49.820;8.648;2023-02-28T01:23:47;-1.00;99.90
24250;DHT22;12379;49.820;8.648;2023-02-28T01:26:15;-1.00;99.90
24250;DHT22;12379;49.820;8.648;2023-02-28T01:28:42;-1.00;99.90
24250;DHT22;12379;49.820;8.648;2023-02-28T01:31:08;-1.00;99.90
24250;DHT22;12379;49.820;8.648;2023-02-28T01:33:35;-1.00;99.90
24250;DHT22;12379;49.820;8.648;2023-02-28T01:36:03;-1.00;99.90
24250;DHT22;12379;49.820;8.648;2023-02-28T01:38:28;-0.90;99.90
24250;DHT22;12379;49.820;8.648;2023-02-28T01:40:54;-1.00;99.90
24250;DHT22;12379;49.820;8.648;2023-02-28T01:44:53;-0.80;99.90
24250;DHT22;12379;49.820;8.648;2023-02-28T01:46:07;-0.80;99.90
24250;DHT22;12379;49.820;8.648;2023-02-28T01:48:56;-0.90;99.90
24250;DHT22;12379;49.820;8.648;2023-02-28T01:51:34;-0.90;99.90
24250;DHT22;12379;49.820;8.648;2023-02-28T01:54:07;-0.80;99.90
24250;DHT22;12379;49.820;8.648;2023-02-28T01:56:41;-0.70;99.90
24250;DHT22;12379;49.820;8.648;2023-02-28T01:59:08;-0.70;99.90
24250;DHT22;12379;49.820;8.648;2023-02-28T02:01:34;-0.70;99.90
24250;DHT22;12379;49.820;8.648;2023-02-28T02:04:02;-0.70;99.90
24250;DHT22;12379;49.820;8.648;2023-02-28T02:06:38;-0.70;99.90
24250;DHT22;12379;49.820;8.648;2023-02-28T02:09:04;-0.70;99.90
24250;DHT22;12379;49.820;8.648;2023-02-28T02:11:30;-0.70;99.90
24250;DHT22;12379;49.820;8.648;2023-02-28T02:19:24;-0.80;99.90
24250;DHT22;12379;49.820;8.648;2023-02-28T02:22:33;-0.80;99.90
24250;DHT22;12379;49.820;8.648;2023-02-28T02:25:32;-0.80;99.90
24250;DHT22;12379;49.820;8.648;2023-02-28T02:36:23;-0.90;99.90
24250;DHT22;12379;49.820;8.648;2023-02-28T02:41:54;-0.90;99.90
24250;DHT22;12379;49.820;8.648;2023-02-28T02:44:34;-0.90;99.90
24250;DHT22;12379;49.820;8.648;2023-02-28T02:47:08;-0.90;99.90
24250;DHT22;12379;49.820;8.648;2023-02-28T02:49:36;-1.00;99.90
24250;DHT22;12379;49.820;8.648;2023-02-28T02:52:06;-1.00;99.90
24250;DHT22;12379;49.820;8.648;2023-02-28T02:54:38;-0.90;99.90
24250;DHT22;12379;49.820;8.648;2023-02-28T02:57:08;-1.00;99.90
24250;DHT22;12379;49.820;8.648;2023-02-28T02:59:37;-1.10;99.90
24250;DHT22;12379;49.820;8.648;2023-02-28T03:02:06;-1.10;99.90
24250;DHT22;12379;49.820;8.648;2023-02-28T03:04:41;-1.10;99.90
24250;DHT22;12379;49.820;8.648;2023-02-28T03:07:07;-1.10;99.90
24250;DHT22;12379;49.820;8.648;2023-02-28T03:09:33;-1.10;99.90
24250;DHT22;12379;49.820;8.648;2023-02-28T03:12:01;-1.20;99.90
24250;DHT22;12379;49.820;8.648;2023-02-28T03:17:57;-1.20;99.90
24250;DHT22;12379;49.820;8.648;2023-02-28T03:23:19;-1.30;99.90
24250;DHT22;12379;49.820;8.648;2023-02-28T03:25:54;-1.30;99.90
24250;DHT22;12379;49.820;8.648;2023-02-28T03:31:10;-1.40;99.90
24250;DHT22;12379;49.820;8.648;2023-02-28T03:33:45;-1.40;99.90
24250;DHT22;12379;49.820;8.648;2023-02-28T03:36:19;-1.30;99.90
24250;DHT22;12379;49.820;8.648;2023-02-28T03:38:53;-1.30;99.90
24250;DHT22;12379;49.820;8.648;2023-02-28T03:41:27;-1.30;99.90
24250;DHT22;12379;49.820;8.648;2023-02-28T03:43:58;-1.40;99.90
24250;DHT22;12379;49.820;8.648;2023-02-28T03:46:27;-1.40;99.90
24250;DHT22;12379;49.820;8.648;2023-02-28T03:49:25;-1.50;99.90
24250;DHT22;12379;49.820;8.648;2023-02-28T03:51:53;-1.50;99.90
24250;DHT22;12379;49.820;8.648;2023-02-28T03:54:31;-1.60;99.90
24250;DHT22;12379;49.820;8.648;2023-02-28T03:59:39;-1.70;99.90
24250;DHT22;12379;49.820;8.648;2023-02-28T04:02:07;-1.80;99.90
24250;DHT22;12379;49.820;8.648;2023-02-28T04:04:34;-1.90;99.90
24250;DHT22;12379;49.820;8.648;2023-02-28T04:07:08;-1.80;99.90
24250;DHT22;12379;49.820;8.648;2023-02-28T04:09:34;-1.80;99.90
24250;DHT22;12379;49.820;8.648;2023-02-28T04:12:00;-1.80;99.90
24250;DHT22;12379;49.820;8.648;2023-02-28T04:14:26;-1.80;99.90
24250;DHT22;12379;49.820;8.648;2023-02-28T04:16:52;-1.80;99.90
24250;DHT22;12379;49.820;8.648;2023-02-28T04:19:18;-1.80;99.90
24250;DHT22;12379;49.820;8.648;2023-02-28T04:21:46;-1.80;99.90
24250;DHT22;12379;49.820;8.648;2023-02-28T04:24:14;-1.90;99.90
24250;DHT22;12379;49.820;8.648;2023-02-28T04:26:45;-2.00;99.90
24250;DHT22;12379;49.820;8.648;2023-02-28T04:29:12;-2.10;99.90
24250;DHT22;12379;49.820;8.648;2023-02-28T04:31:39;-2.20;99.90
24250;DHT22;12379;49.820;8.648;2023-02-28T04:34:06;-2.20;99.90
24250;DHT22;12379;49.820;8.648;2023-02-28T04:36:32;-2.30;99.90
24250;DHT22;12379;49.820;8.648;2023-02-28T04:38:58;-2.40;99.90
24250;DHT22;12379;49.820;8.648;2023-02-28T04:41:24;-2.40;99.90
24250;DHT22;12379;49.820;8.648;2023-02-28T04:43:51;-2.40;99.90
24250;DHT22;12379;49.820;8.648;2023-02-28T04:46:17;-2.30;99.90
24250;DHT22;12379;49.820;8.648;2023-02-28T04:48:43;-2.30;99.90
24250;DHT22;12379;49.820;8.648;2023-02-28T04:51:11;-2.20;99.90
24250;DHT22;12379;49.820;8.648;2023-02-28T04:53:38;-2.20;99.90
24250;DHT22;12379;49.820;8.648;2023-02-28T04:56:06;-2.30;99.90
24250;DHT22;12379;49.820;8.648;2023-02-28T04:58:32;-2.30;99.90
24250;DHT22;12379;49.820;8.648;2023-02-28T05:01:16;-2.30;99.90
24250;DHT22;12379;49.820;8.648;2023-02-28T05:03:43;-2.20;99.90
24250;DHT22;12379;49.820;8.648;2023-02-28T05:06:09;-2.20;99.90
24250;DHT22;12379;49.820;8.648;2023-02-28T05:08:35;-2.30;99.90
24250;DHT22;12379;49.820;8.648;2023-02-28T05:11:02;-2.40;99.90
24250;DHT22;12379;49.820;8.648;2023-02-28T05:13:28;-2.40;99.90
24250;DHT22;12379;49.820;8.648;2023-02-28T05:15:54;-2.40;99.90
24250;DHT22;12379;49.820;8.648;2023-02-28T05:18:20;-2.50;99.90
24250;DHT22;12379;49.820;8.648;2023-02-28T05:20:46;-2.40;99.90
24250;DHT22;12379;49.820;8.648;2023-02-28T05:23:13;-2.30;99.90
24250;DHT22;12379;49.820;8.648;2023-02-28T05:25:39;-2.30;99.90
24250;DHT22;12379;49.820;8.648;2023-02-28T05:28:05;-2.40;99.90
24250;DHT22;12379;49.820;8.648;2023-02-28T05:30:31;-2.30;99.90
24250;DHT22;12379;49.820;8.648;2023-02-28T05:32:57;-2.40;99.90
24250;DHT22;12379;49.820;8.648;2023-02-28T05:35:23;-2.50;99.90
24250;DHT22;12379;49.820;8.648;2023-02-28T05:37:48;-2.40;99.90
24250;DHT22;12379;49.820;8.648;2023-02-28T05:40:14;-2.40;99.90
24250;DHT22;12379;49.820;8.648;2023-02-28T05:42:41;-2.40;99.90
24250;DHT22;12379;49.820;8.648;2023-02-28T05:45:07;-2.40;99.90
24250;DHT22;12379;49.820;8.648;2023-02-28T05:47:33;-2.30;99.90
24250;DHT22;12379;49.820;8.648;2023-02-28T05:49:59;-2.30;99.90
24250;DHT22;12379;49.820;8.648;2023-02-28T05:52:25;-2.40;99.90
24250;DHT22;12379;49.820;8.648;2023-02-28T05:54:51;-2.60;99.90
24250;DHT22;12379;49.820;8.648;2023-02-28T05:57:17;-2.60;99.90
24250;DHT22;12379;49.820;8.648;2023-02-28T05:59:42;-2.60;99.90
24250;DHT22;12379;49.820;8.648;2023-02-28T06:02:14;-2.60;99.90
24250;DHT22;12379;49.820;8.648;2023-02-28T06:04:39;-2.30;99.90
24250;DHT22;12379;49.820;8.648;2023-02-28T06:07:06;-2.20;99.90
24250;DHT22;12379;49.820;8.648;2023-02-28T06:09:32;-2.20;99.90
24250;DHT22;12379;49.820;8.648;2023-02-28T06:11:59;-2.00;99.90
24250;DHT22;12379;49.820;8.648;2023-02-28T06:14:25;-2.00;99.90
24250;DHT22;12379;49.820;8.648;2023-02-28T06:16:51;-2.00;99.90
24250;DHT22;12379;49.820;8.648;2023-02-28T06:19:16;-2.00;99.90
24250;DHT22;12379;49.820;8.648;2023-02-28T06:21:42;-1.90;99.90
24250;DHT22;12379;49.820;8.648;2023-02-28T06:24:08;-1.80;99.90
24250;DHT22;12379;49.820;8.648;2023-02-28T06:26:34;-1.80;99.90
24250;DHT22;12379;49.820;8.648;2023-02-28T06:28:59;-1.70;99.90
24250;DHT22;12379;49.820;8.648;2023-02-28T06:31:26;-1.70;99.90
24250;DHT22;12379;49.820;8.648;2023-02-28T06:33:52;-1.70;99.90
24250;DHT22;12379;49.820;8.648;2023-02-28T06:36:17;-1.70;99.90
24250;DHT22;12379;49.820;8.648;2023-02-28T06:38:44;-1.70;99.90
24250;DHT22;12379;49.820;8.648;2023-02-28T06:41:10;-1.80;99.90
24250;DHT22;12379;49.820;8.648;2023-02-28T06:43:38;-1.80;99.90
24250;DHT22;12379;49.820;8.648;2023-02-28T06:46:06;-1.80;99.90
24250;DHT22;12379;49.820;8.648;2023-02-28T06:48:31;-1.70;99.90
24250;DHT22;12379;49.820;8.648;2023-02-28T06:51:09;-1.60;99.90
24250;DHT22;12379;49.820;8.648;2023-02-28T06:53:35;-0.70;99.90
24250;DHT22;12379;49.820;8.648;2023-02-28T06:56:10;-1.00;99.90
24250;DHT22;12379;49.820;8.648;2023-02-28T06:58:36;-1.10;99.90
24250;DHT22;12379;49.820;8.648;2023-02-28T07:01:03;-1.20;99.90
24250;DHT22;12379;49.820;8.648;2023-02-28T07:03:28;-1.30;99.90
24250;DHT22;12379;49.820;8.648;2023-02-28T07:05:54;-1.20;99.90
24250;DHT22;12379;49.820;8.648;2023-02-28T07:08:22;-1.20;99.90
24250;DHT22;12379;49.820;8.648;2023-02-28T07:10:51;-1.20;99.90
24250;DHT22;12379;49.820;8.648;2023-02-28T07:13:17;-1.10;99.90
24250;DHT22;12379;49.820;8.648;2023-02-28T07:15:43;-1.00;99.90
24250;DHT22;12379;49.820;8.648;2023-02-28T07:18:08;-1.00;99.90
24250;DHT22;12379;49.820;8.648;2023-02-28T07:20:34;-0.80;99.90
24250;DHT22;12379;49.820;8.648;2023-02-28T07:22:59;0.20;99.90
24250;DHT22;12379;49.820;8.648;2023-02-28T07:25:28;0.80;99.90
24250;DHT22;12379;49.820;8.648;2023-02-28T07:27:55;1.30;99.90
24250;DHT22;12379;49.820;8.648;2023-02-28T07:30:21;1.70;99.90
24250;DHT22;12379;49.820;8.648;2023-02-28T07:32:47;2.90;99.90
24250;DHT22;12379;49.820;8.648;2023-02-28T07:35:12;3.30;98.90
24250;DHT22;12379;49.820;8.648;2023-02-28T07:37:41;3.60;98.60
24250;DHT22;12379;49.820;8.648;2023-02-28T07:40:09;4.40;97.10
24250;DHT22;12379;49.820;8.648;2023-02-28T07:42:37;4.40;95.40
24250;DHT22;12379;49.820;8.648;2023-02-28T07:45:03;5.00;94.50
24250;DHT22;12379;49.820;8.648;2023-02-28T07:47:30;5.70;91.70
24250;DHT22;12379;49.820;8.648;2023-02-28T07:49:56;5.10;91.30
24250;DHT22;12379;49.820;8.648;2023-02-28T07:52:22;5.00;91.50
24250;DHT22;12379;49.820;8.648;2023-02-28T07:54:49;5.20;91.50
24250;DHT22;12379;49.820;8.648;2023-02-28T07:57:14;5.20;90.70
24250;DHT22;12379;49.820;8.648;2023-02-28T07:59:40;5.30;90.50
24250;DHT22;12379;49.820;8.648;2023-02-28T08:02:05;5.60;90.30
24250;DHT22;12379;49.820;8.648;2023-02-28T08:04:34;6.10;88.00
24250;DHT22;12379;49.820;8.648;2023-02-28T08:07:00;6.40;85.80
24250;DHT22;12379;49.820;8.648;2023-02-28T08:09:26;6.70;85.90
24250;DHT22;12379;49.820;8.648;2023-02-28T08:11:51;6.80;82.10
24250;DHT22;12379;49.820;8.648;2023-02-28T08:14:17;6.40;83.30
24250;DHT22;12379;49.820;8.648;2023-02-28T08:16:43;6.10;83.00
24250;DHT22;12379;49.820;8.648;2023-02-28T08:19:08;6.00;84.30
24250;DHT22;12379;49.820;8.648;2023-02-28T08:21:34;6.30;84.10
24250;DHT22;12379;49.820;8.648;2023-02-28T08:24:00;6.50;82.50
24250;DHT22;12379;49.820;8.648;2023-02-28T08:26:26;6.60;81.50
24250;DHT22;12379;49.820;8.648;2023-02-28T08:28:51;6.10;82.90
24250;DHT22;12379;49.820;8.648;2023-02-28T08:31:18;6.90;81.90
24250;DHT22;12379;49.820;8.648;2023-02-28T08:33:44;7.20;81.40
24250;DHT22;12379;49.820;8.648;2023-02-28T08:36:10;7.90;78.50
24250;DHT22;12379;49.820;8.648;2023-02-28T08:38:36;8.20;75.50
24250;DHT22;12379;49.820;8.648;2023-02-28T08:41:07;7.80;75.00
24250;DHT22;12379;49.820;8.648;2023-02-28T08:43:34;6.80;77.80
24250;DHT22;12379;49.820;8.648;2023-02-28T08:46:00;6.80;77.20
24250;DHT22;12379;49.820;8.648;2023-02-28T08:48:28;6.40;79.10
24250;DHT22;12379;49.820;8.648;2023-02-28T08:51:06;7.10;78.40
24250;DHT22;12379;49.820;8.648;2023-02-28T08:53:38;7.60;76.60
24250;DHT22;12379;49.820;8.648;2023-02-28T08:56:07;7.70;75.80
24250;DHT22;12379;49.820;8.648;2023-02-28T08:58:33;7.30;76.00
24250;DHT22;12379;49.820;8.648;2023-02-28T09:00:59;6.90;77.00
24250;DHT22;12379;49.820;8.648;2023-02-28T09:03:26;7.30;76.10
24250;DHT22;12379;49.820;8.648;2023-02-28T09:05:57;6.90;75.60
24250;DHT22;12379;49.820;8.648;2023-02-28T09:08:24;6.60;78.30
24250;DHT22;12379;49.820;8.648;2023-02-28T09:10:50;7.10;77.30
24250;DHT22;12379;49.820;8.648;2023-02-28T09:13:16;7.80;76.40
24250;DHT22;12379;49.820;8.648;2023-02-28T09:15:42;8.20;74.30
24250;DHT22;12379;49.820;8.648;2023-02-28T09:18:08;8.40;73.60
24250;DHT22;12379;49.820;8.648;2023-02-28T09:20:33;8.30;72.30
24250;DHT22;12379;49.820;8.648;2023-02-28T09:22:59;8.40;71.10
24250;DHT22;12379;49.820;8.648;2023-02-28T09:25:24;8.60;71.30
24250;DHT22;12379;49.820;8.648;2023-02-28T09:27:50;9.20;69.20
24250;DHT22;12379;49.820;8.648;2023-02-28T09:30:16;8.70;69.70
24250;DHT22;12379;49.820;8.648;2023-02-28T09:32:41;9.30;68.20
24250;DHT22;12379;49.820;8.648;2023-02-28T09:35:07;9.00;67.60
24250;DHT22;12379;49.820;8.648;2023-02-28T09:37:38;9.10;68.10
24250;DHT22;12379;49.820;8.648;2023-02-28T09:40:04;9.80;65.80
24250;DHT22;12379;49.820;8.648;2023-02-28T09:42:32;8.80;66.70
24250;DHT22;12379;49.820;8.648;2023-02-28T09:45:00;9.20;64.80
24250;DHT22;12379;49.820;8.648;2023-02-28T09:47:31;8.20;67.00
24250;DHT22;12379;49.820;8.648;2023-02-28T09:50:07;8.00;67.40
24250;DHT22;12379;49.820;8.648;2023-02-28T09:52:38;8.40;67.60
24250;DHT22;12379;49.820;8.648;2023-02-28T09:55:24;8.70;66.30
24250;DHT22;12379;49.820;8.648;2023-02-28T09:57:54;9.00;64.90
24250;DHT22;12379;49.820;8.648;2023-02-28T10:00:36;9.30;64.10
24250;DHT22;12379;49.820;8.648;2023-02-28T10:03:25;10.00;60.00
24250;DHT22;12379;49.820;8.648;2023-02-28T10:06:00;9.80;61.40
24250;DHT22;12379;49.820;8.648;2023-02-28T10:08:48;10.40;59.50
24250;DHT22;12379;49.820;8.648;2023-02-28T10:11:16;10.00;56.90
24250;DHT22;12379;49.820;8.648;2023-02-28T10:16:34;7.90;60.70
24250;DHT22;12379;49.820;8.648;2023-02-28T10:19:18;8.70;60.40
24250;DHT22;12379;49.820;8.648;2023-02-28T10:21:49;8.30;59.90
24250;DHT22;12379;49.820;8.648;2023-02-28T10:24:28;8.00;60.40
24250;DHT22;12379;49.820;8.648;2023-02-28T10:27:00;7.70;61.70
24250;DHT22;12379;49.820;8.648;2023-02-28T10:29:27;7.60;62.60
24250;DHT22;12379;49.820;8.648;2023-02-28T10:32:01;7.80;62.60
24250;DHT22;12379;49.820;8.648;2023-02-28T10:34:27;8.40;60.60
24250;DHT22;12379;49.820;8.648;2023-02-28T10:36:54;9.00;59.40
24250;DHT22;12379;49.820;8.648;2023-02-28T10:39:41;9.50;57.10
24250;DHT22;12379;49.820;8.648;2023-02-28T10:42:28;9.40;57.00
24250;DHT22;12379;49.820;8.648;2023-02-28T10:47:51;8.90;57.50
24250;DHT22;12379;49.820;8.648;2023-02-28T10:58:23;8.70;57.00
24250;DHT22;12379;49.820;8.648;2023-02-28T11:00:49;8.50;56.50
24250;DHT22;12379;49.820;8.648;2023-02-28T11:03:33;8.00;57.70
24250;DHT22;12379;49.820;8.648;2023-02-28T11:06:06;8.40;57.80
24250;DHT22;12379;49.820;8.648;2023-02-28T11:08:33;8.50;57.10
24250;DHT22;12379;49.820;8.648;2023-02-28T11:11:04;8.40;57.40
24250;DHT22;12379;49.820;8.648;2023-02-28T11:13:35;7.90;58.20
24250;DHT22;12379;49.820;8.648;2023-02-28T11:16:05;7.80;58.80
24250;DHT22;12379;49.820;8.648;2023-02-28T11:21:16;7.60;59.50
24250;DHT22;12379;49.820;8.648;2023-02-28T11:23:43;7.70;59.20
24250;DHT22;12379;49.820;8.648;2023-02-28T11:26:09;7.30;60.20
24250;DHT22;12379;49.820;8.648;2023-02-28T11:28:39;7.00;60.80
24250;DHT22;12379;49.820;8.648;2023-02-28T11:33:52;6.10;62.80
24250;DHT22;12379;49.820;8.648;2023-02-28T11:36:27;5.90;63.50
24250;DHT22;12379;49.820;8.648;2023-02-28T11:38:55;6.00;64.20
24250;DHT22;12379;49.820;8.648;2023-02-28T11:47:19;5.90;65.00
24250;DHT22;12379;49.820;8.648;2023-02-28T11:53:00;6.00;65.30
24250;DHT22;12379;49.820;8.648;2023-02-28T12:03:57;5.50;66.90
24250;DHT22;12379;49.820;8.648;2023-02-28T12:06:31;5.50;67.50
24250;DHT22;12379;49.820;8.648;2023-02-28T12:11:55;5.80;67.80
24250;DHT22;12379;49.820;8.648;2023-02-28T12:17:13;5.70;67.90
24250;DHT22;12379;49.820;8.648;2023-02-28T12:20:02;6.00;67.60
24250;DHT22;12379;49.820;8.648;2023-02-28T12:22:37;6.10;67.00
24250;DHT22;12379;49.820;8.648;2023-02-28T12:27:49;6.10;66.70
24250;DHT22;12379;49.820;8.648;2023-02-28T12:30:25;6.10;66.70
24250;DHT22;12379;49.820;8.648;2023-02-28T12:33:03;5.90;66.90
24250;DHT22;12379;49.820;8.648;2023-02-28T12:38:36;6.10;67.40
24250;DHT22;12379;49.820;8.648;2023-02-28T12:41:09;6.10;67.90
24250;DHT22;12379;49.820;8.648;2023-02-28T12:43:40;6.00;68.10
24250;DHT22;12379;49.820;8.648;2023-02-28T12:46:12;6.10;66.70
24250;DHT22;12379;49.820;8.648;2023-02-28T12:48:43;6.00;67.60
24250;DHT22;12379;49.820;8.648;2023-02-28T12:51:10;6.00;67.90
24250;DHT22;12379;49.820;8.648;2023-02-28T12:54:14;6.20;68.20
24250;DHT22;12379;49.820;8.648;2023-02-28T12:56:53;6.10;67.70
24250;DHT22;12379;49.820;8.648;2023-02-28T13:07:36;5.80;68.80
24250;DHT22;12379;49.820;8.648;2023-02-28T13:10:07;6.00;68.00
24250;DHT22;12379;49.820;8.648;2023-02-28T13:12:34;6.00;67.90
24250;DHT22;12379;49.820;8.648;2023-02-28T13:15:21;6.20;68.10
24250;DHT22;12379;49.820;8.648;2023-02-28T13:17:51;6.10;67.20
24250;DHT22;12379;49.820;8.648;2023-02-28T13:20:29;6.20;67.90
24250;DHT22;12379;49.820;8.648;2023-02-28T13:22:56;6.10;67.20
24250;DHT22;12379;49.820;8.648;2023-02-28T13:28:13;6.20;67.00
24250;DHT22;12379;49.820;8.648;2023-02-28T13:33:22;6.10;67.80
24250;DHT22;12379;49.820;8.648;2023-02-28T13:38:46;6.50;67.20
24250;DHT22;12379;49.820;8.648;2023-02-28T13:44:17;6.40;66.70
24250;DHT22;12379;49.820;8.648;2023-02-28T13:49:31;6.40;67.00
24250;DHT22;12379;49.820;8.648;2023-02-28T14:05:33;6.20;67.80
24250;DHT22;12379;49.820;8.648;2023-02-28T14:08:10;6.30;67.90
24250;DHT22;12379;49.820;8.648;2023-02-28T14:10:45;6.40;67.90
24250;DHT22;12379;49.820;8.648;2023-02-28T14:13:13;6.30;67.90
24250;DHT22;12379;49.820;8.648;2023-02-28T14:18:34;6.30;66.70
24250;DHT22;12379;49.820;8.648;2023-02-28T14:21:14;6.30;66.10
24250;DHT22;12379;49.820;8.648;2023-02-28T14:24:03;6.20;66.20
24250;DHT22;12379;49.820;8.648;2023-02-28T14:29:52;6.00;67.00
24250;DHT22;12379;49.820;8.648;2023-02-28T14:35:50;6.50;66.60
24250;DHT22;12379;49.820;8.648;2023-02-28T14:38:57;6.40;66.90
24250;DHT22;12379;49.820;8.648;2023-02-28T14:41:32;6.50;67.20
24250;DHT22;12379;49.820;8.648;2023-02-28T14:44:01;6.40;66.50
24250;DHT22;12379;49.820;8.648;2023-02-28T14:46:36;6.40;66.80
24250;DHT22;12379;49.820;8.648;2023-02-28T14:49:04;6.30;67.30
24250;DHT22;12379;49.820;8.648;2023-02-28T14:51:30;6.40;67.30
24250;DHT22;12379;49.820;8.648;2023-02-28T14:53:59;6.40;67.00
24250;DHT22;12379;49.820;8.648;2023-02-28T14:56:38;6.40;67.20
24250;DHT22;12379;49.820;8.648;2023-02-28T14:59:05;6.40;67.30
24250;DHT22;12379;49.820;8.648;2023-02-28T15:01:31;6.40;67.90
24250;DHT22;12379;49.820;8.648;2023-02-28T15:04:05;6.50;67.40
24250;DHT22;12379;49.820;8.648;2023-02-28T15:06:32;6.50;68.00
24250;DHT22;12379;49.820;8.648;2023-02-28T15:09:15;6.50;67.60
24250;DHT22;12379;49.820;8.648;2023-02-28T15:11:41;6.40;67.10
24250;DHT22;12379;49.820;8.648;2023-02-28T15:14:17;6.20;67.80
24250;DHT22;12379;49.820;8.648;2023-02-28T15:16:45;6.20;68.00
24250;DHT22;12379;49.820;8.648;2023-02-28T15:19:19;6.20;68.30
24250;DHT22;12379;49.820;8.648;2023-02-28T15:21:50;6.30;68.00
24250;DHT22;12379;49.820;8.648;2023-02-28T15:26:53;6.20;68.60
24250;DHT22;12379;49.820;8.648;2023-02-28T15:29:23;6.30;68.70
24250;DHT22;12379;49.820;8.648;2023-02-28T15:32:00;6.20;68.70
24250;DHT22;12379;49.820;8.648;2023-02-28T15:34:37;6.30;69.00
24250;DHT22;12379;49.820;8.648;2023-02-28T15:37:30;6.50;69.30
24250;DHT22;12379;49.820;8.648;2023-02-28T15:40:13;6.60;68.00
24250;DHT22;12379;49.820;8.648;2023-02-28T15:42:39;6.40;68.30
24250;DHT22;12379;49.820;8.648;2023-02-28T15:45:05;6.40;67.70
24250;DHT22;12379;49.820;8.648;2023-02-28T15:47:31;6.30;68.20
24250;DHT22;12379;49.820;8.648;2023-02-28T15:49:57;6.30;68.10
24250;DHT22;12379;49.820;8.648;2023-02-28T15:52:50;6.30;67.20
24250;DHT22;12379;49.820;8.648;2023-02-28T15:55:24;6.30;67.10
24250;DHT22;12379;49.820;8.648;2023-02-28T15:57:54;6.10;67.60
24250;DHT22;12379;49.820;8.648;2023-02-28T16:00:25;6.10;69.00
24250;DHT22;12379;49.820;8.648;2023-02-28T16:02:51;6.20;68.30
24250;DHT22;12379;49.820;8.648;2023-02-28T16:05:30;6.10;68.80
24250;DHT22;12379;49.820;8.648;2023-02-28T16:08:00;6.20;69.20
24250;DHT22;12379;49.820;8.648;2023-02-28T16:10:27;6.20;68.80
24250;DHT22;12379;49.820;8.648;2023-02-28T16:12:56;6.10;69.00
24250;DHT22;12379;49.820;8.648;2023-02-28T16:15:26;6.20;68.10
24250;DHT22;12379;49.820;8.648;2023-02-28T16:17:53;6.10;68.20
24250;DHT22;12379;49.820;8.648;2023-02-28T16:20:27;6.00;68.60
24250;DHT22;12379;49.820;8.648;2023-02-28T16:22:54;5.90;69.10
24250;DHT22;12379;49.820;8.648;2023-02-28T16:25:23;5.80;68.60
24250;DHT22;12379;49.820;8.648;2023-02-28T16:27:52;5.80;69.20
24250;DHT22;12379;49.820;8.648;2023-02-28T16:30:24;5.80;69.10
24250;DHT22;12379;49.820;8.648;2023-02-28T16:32:52;5.70;69.60
24250;DHT22;12379;49.820;8.648;2023-02-28T16:35:19;5.60;70.10
24250;DHT22;12379;49.820;8.648;2023-02-28T16:37:46;5.60;69.60
24250;DHT22;12379;49.820;8.648;2023-02-28T16:40:18;5.60;69.90
24250;DHT22;12379;49.820;8.648;2023-02-28T16:42:47;5.50;70.20
24250;DHT22;12379;49.820;8.648;2023-02-28T16:45:19;5.40;70.80
24250;DHT22;12379;49.820;8.648;2023-02-28T16:47:46;5.30;71.20
24250;DHT22;12379;49.820;8.648;2023-02-28T16:50:16;5.30;71.00
24250;DHT22;12379;49.820;8.648;2023-02-28T16:52:42;5.20;71.40
24250;DHT22;12379;49.820;8.648;2023-02-28T16:55:08;5.10;72.00
24250;DHT22;12379;49.820;8.648;2023-02-28T16:57:34;5.00;72.50
24250;DHT22;12379;49.820;8.648;2023-02-28T17:00:00;4.90;72.70
24250;DHT22;12379;49.820;8.648;2023-02-28T17:02:27;4.90;72.90
24250;DHT22;12379;49.820;8.648;2023-02-28T17:04:52;4.90;72.90
24250;DHT22;12379;49.820;8.648;2023-02-28T17:07:18;4.80;73.10
24250;DHT22;12379;49.820;8.648;2023-02-28T17:09:44;4.70;73.40
24250;DHT22;12379;49.820;8.648;2023-02-28T17:12:10;4.70;73.10
24250;DHT22;12379;49.820;8.648;2023-02-28T17:14:37;4.70;73.10
24250;DHT22;12379;49.820;8.648;2023-02-28T17:17:06;4.70;73.40
24250;DHT22;12379;49.820;8.648;2023-02-28T17:19:31;4.60;73.40
24250;DHT22;12379;49.820;8.648;2023-02-28T17:21:57;4.50;73.70
24250;DHT22;12379;49.820;8.648;2023-02-28T17:24:22;4.40;74.70
24250;DHT22;12379;49.820;8.648;2023-02-28T17:26:48;4.30;74.30
24250;DHT22;12379;49.820;8.648;2023-02-28T17:29:19;4.30;74.40
24250;DHT22;12379;49.820;8.648;2023-02-28T17:31:45;4.30;74.60
24250;DHT22;12379;49.820;8.648;2023-02-28T17:34:11;4.20;74.80
24250;DHT22;12379;49.820;8.648;2023-02-28T17:36:44;4.10;75.20
24250;DHT22;12379;49.820;8.648;2023-02-28T17:39:11;4.00;75.50
24250;DHT22;12379;49.820;8.648;2023-02-28T17:41:45;4.00;75.70
24250;DHT22;12379;49.820;8.648;2023-02-28T17:44:11;4.00;75.80
24250;DHT22;12379;49.820;8.648;2023-02-28T17:46:36;4.00;76.10
24250;DHT22;12379;49.820;8.648;2023-02-28T17:49:02;3.80;76.30
24250;DHT22;12379;49.820;8.648;2023-02-28T17:51:28;3.80;76.90
24250;DHT22;12379;49.820;8.648;2023-02-28T17:53:54;3.70;77.10
24250;DHT22;12379;49.820;8.648;2023-02-28T17:56:22;3.70;77.50
24250;DHT22;12379;49.820;8.648;2023-02-28T17:58:49;3.70;77.70